Maersk Barry — OYJE2 — position and weather

sailwx.info

Track history (hours):
 
Tides and Currents Weather Stations Pressure Air Temp Water Temp Dewpoint Dewpoint Depression Visibility Wind Speed Wind Dir Waves Ship Positions

Maersk Barry

Last reported at 2018-Feb-21 06:57 UTC. Time now 2018-Feb-23 01:08 UTC.
Position N 37°14' E 025°51'.

Length 175 m; draft 9.5 m.

Type: Ship (hazmat cat B). MMSI: 219127000.

Date/timePositionNaut miles runAvg speedWind from/ knotsBaromVisibWave heightAir tempDewpointWater temp
2018-Feb-21 06:57N 37°14' E 025°51'613.9
2018-Feb-21 06:30N 37°20' E 025°49'713.4
2018-Feb-21 06:00N 37°26' E 025°48'713.0
2018-Feb-21 05:30N 37°33' E 025°49'  
2018-Feb-17 02:59N 46°14' E 030°53'511.0
2018-Feb-17 02:30N 46°19' E 030°55'612.4
2018-Feb-17 02:00N 46°26' E 030°55'611.9
2018-Feb-17 01:30N 46°32' E 030°55'510.3
2018-Feb-17 01:01N 46°34' E 031°02'5 9.4
2018-Feb-17 00:31N 46°35' E 031°08'611.3
2018-Feb-16 23:57N 46°35' E 031°17'9 9.5
2018-Feb-16 22:58N 46°35' E 031°31'7 9.3
2018-Feb-16 22:15N 46°36' E 031°41'2 9.9
2018-Feb-16 22:01N 46°36' E 031°44'5 9.4
2018-Feb-16 21:31N 46°37' E 031°51'4 8.9
2018-Feb-16 21:00N 46°40' E 031°56'4 8.8
2018-Feb-16 20:30N 46°44' E 031°56'4 8.4
2018-Feb-16 20:00N 46°48' E 031°53'5 9.5
2018-Feb-16 19:30N 46°52' E 031°58'4 8.9
2018-Feb-16 19:00N 46°55' E 032°01'2 3.7
2018-Feb-16 18:30N 46°57' E 031°60'0 0.0
2018-Feb-16 17:58N 46°57' E 031°60'0 0.0
2018-Feb-16 17:28N 46°57' E 031°60'0 0.0
2018-Feb-16 16:58N 46°57' E 031°60'0 0.0
2018-Feb-16 16:25N 46°57' E 031°60'0 0.0
2018-Feb-16 15:58N 46°57' E 031°60'0 0.0
2018-Feb-16 15:28N 46°57' E 031°60'0 0.0
2018-Feb-16 14:55N 46°57' E 031°60'0 0.0
2018-Feb-16 14:25N 46°57' E 031°60'0 0.0
2018-Feb-16 13:58N 46°57' E 031°60'0 0.0
2018-Feb-16 13:28N 46°57' E 031°60'0 0.0
2018-Feb-16 12:58N 46°57' E 031°60'0 0.0
2018-Feb-16 12:28N 46°57' E 031°60'0 0.0
2018-Feb-16 11:55N 46°57' E 031°60'0 0.0
2018-Feb-16 11:28N 46°57' E 031°60'0 0.0
2018-Feb-16 10:58N 46°57' E 031°60'0 0.0
2018-Feb-16 10:28N 46°57' E 031°60'0 0.0
2018-Feb-16 09:58N 46°57' E 031°60'0 0.0
2018-Feb-16 09:28N 46°57' E 031°60'0 0.0
2018-Feb-16 08:55N 46°57' E 031°60'0 0.0
2018-Feb-16 08:28N 46°57' E 031°60'0 0.0
2018-Feb-16 07:58N 46°57' E 031°60'0 0.0
2018-Feb-16 07:28N 46°57' E 031°60'0 0.0
2018-Feb-16 06:55N 46°57' E 031°60'0 0.0
2018-Feb-16 06:28N 46°57' E 031°60'0 0.0
2018-Feb-16 05:58N 46°57' E 031°60'0 0.0
2018-Feb-16 05:28N 46°57' E 031°60'0 0.0
2018-Feb-16 04:52N 46°57' E 031°60'0 0.0
2018-Feb-16 04:28N 46°57' E 031°60'0 0.0
2018-Feb-16 03:58N 46°57' E 031°60'0 0.0
2018-Feb-16 03:28N 46°57' E 031°60'0 0.0
2018-Feb-16 02:58N 46°57' E 031°60'0 0.0
2018-Feb-16 02:28N 46°57' E 031°60'0 0.0
2018-Feb-16 01:58N 46°57' E 031°60'0 0.0
2018-Feb-16 01:25N 46°57' E 031°60'0 0.0
2018-Feb-16 00:55N 46°57' E 031°60'0 0.0
2018-Feb-16 00:28N 46°57' E 031°60'0 0.0
2018-Feb-15 23:55N 46°57' E 031°60'0 0.0
2018-Feb-15 23:28N 46°57' E 031°60'0 0.0
2018-Feb-15 22:58N 46°57' E 031°60'0 0.0
2018-Feb-15 22:28N 46°57' E 031°60'0 0.0
2018-Feb-15 21:58N 46°57' E 031°60'0 0.0
2018-Feb-15 21:28N 46°57' E 031°60'0 0.0
2018-Feb-15 20:58N 46°57' E 031°60'0 0.0
2018-Feb-15 20:28N 46°57' E 031°60'0 0.0
2018-Feb-15 19:58N 46°57' E 031°60'0 0.0
2018-Feb-15 19:28N 46°57' E 031°60'0 0.0
2018-Feb-15 18:58N 46°57' E 031°60'0 0.0
2018-Feb-15 18:28N 46°57' E 031°60'0 0.0
2018-Feb-15 17:58N 46°57' E 031°60'0 0.0
2018-Feb-15 17:28N 46°57' E 031°60'0 0.0
2018-Feb-15 16:58N 46°57' E 031°60'0 0.0
2018-Feb-15 16:28N 46°57' E 031°60'0 0.0
2018-Feb-15 15:58N 46°57' E 031°60'0 0.0
2018-Feb-15 15:28N 46°57' E 031°60'0 0.0
2018-Feb-15 14:58N 46°57' E 031°60'0 0.0
2018-Feb-15 14:28N 46°57' E 031°60'0 0.0
2018-Feb-15 13:58N 46°57' E 031°60'0 0.0
2018-Feb-15 13:28N 46°57' E 031°60'0 0.0
2018-Feb-15 12:58N 46°57' E 031°60'0 0.0
2018-Feb-15 12:28N 46°57' E 031°60'0 0.0
2018-Feb-15 11:58N 46°57' E 031°60'0 0.0
2018-Feb-15 11:25N 46°57' E 031°60'0 0.0
2018-Feb-15 10:58N 46°57' E 031°60'0 0.0
2018-Feb-15 10:28N 46°57' E 031°60'0 0.0
2018-Feb-15 09:58N 46°57' E 031°60'0 0.0
2018-Feb-15 09:28N 46°57' E 031°60'0 0.0
2018-Feb-15 08:58N 46°57' E 031°60'0 0.0
2018-Feb-15 08:28N 46°57' E 031°60'0 0.0
2018-Feb-15 07:58N 46°57' E 031°60'0 0.0
2018-Feb-15 07:28N 46°57' E 031°60'0 0.0
2018-Feb-15 06:58N 46°57' E 031°60'0 0.0
2018-Feb-15 06:25N 46°57' E 031°60'0 0.0
2018-Feb-15 05:58N 46°57' E 031°60'0 0.0
2018-Feb-15 05:28N 46°57' E 031°60'0 0.0
2018-Feb-15 04:58N 46°57' E 031°60'0 0.0
2018-Feb-15 04:28N 46°57' E 031°60'0 0.0
2018-Feb-15 03:58N 46°57' E 031°60'0 0.0
2018-Feb-15 03:28N 46°57' E 031°60'0 0.0
2018-Feb-15 02:58N 46°57' E 031°60'0 0.0
2018-Feb-15 02:28N 46°57' E 031°60'0 0.0
2018-Feb-15 01:58N 46°57' E 031°60'0 0.0
2018-Feb-15 01:25N 46°57' E 031°60'0 0.0
2018-Feb-15 00:58N 46°57' E 031°60'0 0.0
2018-Feb-15 00:28N 46°57' E 031°60'0 0.0
2018-Feb-14 23:58N 46°57' E 031°60'0 0.0
2018-Feb-14 23:28N 46°57' E 031°60'0 0.0
2018-Feb-14 22:55N 46°57' E 031°60'0 0.0
2018-Feb-14 22:28N 46°57' E 031°60'0 0.0
2018-Feb-14 21:58N 46°57' E 031°60'0 0.0
2018-Feb-14 21:28N 46°57' E 031°60'0 0.0
2018-Feb-14 20:55N 46°57' E 031°60'0 0.0
2018-Feb-14 20:28N 46°57' E 031°60'0 0.0
2018-Feb-14 19:58N 46°57' E 031°60'0 0.0
2018-Feb-14 19:28N 46°57' E 031°60'0 0.0
2018-Feb-14 18:58N 46°57' E 031°60'0 0.0
2018-Feb-14 18:28N 46°57' E 031°60'0 0.0
2018-Feb-14 17:58N 46°57' E 031°60'0 0.0
2018-Feb-14 17:28N 46°57' E 031°60'0 0.0
2018-Feb-14 16:58N 46°57' E 031°60'0 0.0
2018-Feb-14 16:25N 46°57' E 031°60'0 0.0
2018-Feb-14 15:55N 46°57' E 031°60'0 0.0
2018-Feb-14 15:28N 46°57' E 031°60'0 0.0
2018-Feb-14 14:55N 46°57' E 031°60'0 0.0
2018-Feb-14 14:28N 46°57' E 031°60'0 0.0
2018-Feb-14 13:58N 46°57' E 031°60'0 0.0
2018-Feb-14 13:28N 46°57' E 031°60'0 0.0
2018-Feb-14 12:58N 46°57' E 031°60'0 0.0
2018-Feb-14 12:28N 46°57' E 031°60'0 0.0
2018-Feb-14 11:58N 46°57' E 031°60'0 0.0
2018-Feb-14 11:28N 46°57' E 031°60'0 0.0
2018-Feb-14 10:58N 46°57' E 031°60'0 0.0
2018-Feb-14 10:28N 46°57' E 031°60'0 0.0
2018-Feb-14 09:58N 46°57' E 031°60'0 0.0
2018-Feb-14 09:28N 46°57' E 031°60'0 0.0
2018-Feb-14 08:55N 46°57' E 031°60'0 0.0
2018-Feb-14 08:25N 46°57' E 031°60'0 0.0
2018-Feb-14 07:58N 46°57' E 031°60'0 0.0
2018-Feb-14 07:22N 46°57' E 031°60'0 0.0
2018-Feb-14 06:58N 46°57' E 031°60'0 0.0
2018-Feb-14 06:28N 46°57' E 031°60'0 0.0
2018-Feb-14 05:58N 46°57' E 031°60'0 0.0
2018-Feb-14 05:28N 46°57' E 031°60'0 0.0
2018-Feb-14 04:58N 46°57' E 031°60'0 0.0
2018-Feb-14 04:28N 46°57' E 031°60'0 0.0
2018-Feb-14 03:58N 46°57' E 031°60'0 0.0
2018-Feb-14 03:28N 46°57' E 031°60'0 0.0
2018-Feb-14 02:58N 46°57' E 031°60'0 0.0
2018-Feb-14 02:28N 46°57' E 031°60'0 0.0
2018-Feb-14 01:58N 46°57' E 031°60'0 0.0
2018-Feb-14 01:28N 46°57' E 031°60'0 0.0
2018-Feb-14 00:55N 46°57' E 031°60'0 0.0
2018-Feb-14 00:25N 46°57' E 031°60'0 0.0
2018-Feb-13 23:58N 46°57' E 031°60'0 0.0
2018-Feb-13 23:28N 46°57' E 031°60'0 0.0
2018-Feb-13 22:58N 46°57' E 031°60'0 0.0
2018-Feb-13 22:28N 46°57' E 031°60'0 0.0
2018-Feb-13 21:58N 46°57' E 031°60'0 0.0
2018-Feb-13 21:28N 46°57' E 031°60'0 0.0
2018-Feb-13 20:58N 46°57' E 031°60'0 0.0
2018-Feb-13 20:28N 46°57' E 031°60'0 0.0
2018-Feb-13 19:58N 46°57' E 031°60'0 0.0
2018-Feb-13 19:25N 46°57' E 031°60'0 0.0
2018-Feb-13 18:55N 46°57' E 031°60'0 0.0
2018-Feb-13 18:28N 46°57' E 031°60'0 0.0
2018-Feb-13 17:58N 46°57' E 031°60'0 0.0
2018-Feb-13 17:28N 46°57' E 031°60'0 0.0
2018-Feb-13 16:58N 46°57' E 031°60'0 0.0
2018-Feb-13 16:28N 46°57' E 031°60'0 0.0
2018-Feb-13 15:58N 46°57' E 031°60'0 0.0
2018-Feb-13 15:28N 46°57' E 031°60'0 0.0
2018-Feb-13 14:58N 46°57' E 031°60'0 0.1
2018-Feb-13 14:30N 46°57' E 032°00'1 1.5
2018-Feb-13 14:00N 46°57' E 032°01'0 0.3
2018-Feb-13 13:24N 46°56' E 032°01'0 0.0
2018-Feb-13 13:00N 46°56' E 032°01'0 0.0
2018-Feb-13 12:30N 46°56' E 032°01'0 0.0
2018-Feb-13 12:00N 46°56' E 032°01'0 0.0
2018-Feb-13 11:30N 46°56' E 032°01'0 0.0
2018-Feb-13 11:00N 46°56' E 032°01'0 0.0
2018-Feb-13 10:30N 46°56' E 032°01'0 0.0
2018-Feb-13 10:00N 46°56' E 032°01'0 0.0
2018-Feb-13 09:30N 46°56' E 032°01'0 0.0
2018-Feb-13 09:00N 46°56' E 032°01'0 0.0
2018-Feb-13 08:30N 46°56' E 032°01'0 0.0
2018-Feb-13 08:00N 46°56' E 032°01'0 0.0
2018-Feb-13 07:30N 46°56' E 032°01'0 0.0
2018-Feb-13 07:00N 46°56' E 032°01'0 0.0
2018-Feb-13 06:30N 46°56' E 032°01'0 0.0
2018-Feb-13 06:00N 46°56' E 032°01'0 0.0
2018-Feb-13 05:30N 46°56' E 032°01'0 0.0
2018-Feb-13 05:00N 46°56' E 032°01'0 0.0
2018-Feb-13 04:30N 46°56' E 032°01'0 0.0
2018-Feb-13 04:00N 46°56' E 032°01'0 0.0
2018-Feb-13 03:30N 46°56' E 032°01'0 0.0
2018-Feb-13 03:00N 46°56' E 032°01'0 0.0
2018-Feb-13 02:30N 46°56' E 032°01'0 0.0
2018-Feb-13 02:00N 46°56' E 032°01'0 0.0
2018-Feb-13 01:30N 46°56' E 032°01'0 0.0
2018-Feb-13 01:00N 46°56' E 032°01'0 0.0
2018-Feb-13 00:30N 46°56' E 032°01'0 0.0
2018-Feb-12 23:57N 46°56' E 032°01'0 0.0
2018-Feb-12 23:30N 46°56' E 032°01'0 0.0
2018-Feb-12 23:00N 46°56' E 032°01'0 0.0
2018-Feb-12 22:30N 46°56' E 032°01'0 0.0
2018-Feb-12 22:00N 46°56' E 032°01'0 0.0
2018-Feb-12 21:30N 46°56' E 032°01'0 0.0
2018-Feb-12 21:00N 46°56' E 032°01'0 0.0
2018-Feb-12 20:30N 46°56' E 032°01'0 0.0
2018-Feb-12 20:00N 46°56' E 032°01'0 0.0
2018-Feb-12 19:30N 46°56' E 032°01'0 0.0
2018-Feb-12 19:00N 46°56' E 032°01'0 0.0
2018-Feb-12 18:30N 46°56' E 032°01'0 0.0
2018-Feb-12 18:00N 46°56' E 032°01'0 0.0
2018-Feb-12 17:30N 46°56' E 032°01'0 0.0
2018-Feb-12 17:00N 46°56' E 032°01'0 0.0
2018-Feb-12 16:30N 46°56' E 032°01'0 0.0
2018-Feb-12 16:00N 46°56' E 032°01'0 0.0
2018-Feb-12 15:18N 46°56' E 032°01'0 0.0
2018-Feb-12 15:00N 46°56' E 032°01'0 0.0
2018-Feb-12 14:30N 46°56' E 032°01'0 0.0
2018-Feb-12 14:00N 46°56' E 032°01'0 0.0
2018-Feb-12 13:30N 46°56' E 032°01'0 0.0
2018-Feb-12 13:00N 46°56' E 032°01'0 0.0
2018-Feb-12 12:30N 46°56' E 032°01'0 0.0
2018-Feb-12 12:00N 46°56' E 032°01'0 0.0
2018-Feb-12 11:30N 46°56' E 032°01'0 0.0
2018-Feb-12 11:00N 46°56' E 032°01'0 0.0
2018-Feb-12 10:30N 46°56' E 032°01'0 0.0
2018-Feb-12 10:00N 46°56' E 032°01'0 0.0
2018-Feb-12 09:30N 46°56' E 032°01'0 0.0
2018-Feb-12 09:00N 46°56' E 032°01'0 0.0
2018-Feb-12 08:27N 46°56' E 032°01'0 0.0
2018-Feb-12 08:00N 46°56' E 032°01'0 0.0
2018-Feb-12 07:30N 46°56' E 032°01'0 0.0
2018-Feb-12 07:00N 46°56' E 032°01'0 0.0
2018-Feb-12 06:30N 46°56' E 032°01'0 0.0
2018-Feb-12 06:00N 46°56' E 032°01'0 0.0
2018-Feb-12 05:27N 46°56' E 032°01'0 0.0
2018-Feb-12 05:00N 46°56' E 032°01'0 0.0
2018-Feb-12 04:30N 46°56' E 032°01'0 0.0
2018-Feb-12 04:00N 46°56' E 032°01'0 0.0
2018-Feb-12 03:30N 46°56' E 032°01'0 0.0
2018-Feb-12 03:00N 46°56' E 032°01'0 0.3
2018-Feb-12 02:30N 46°56' E 032°01'1 2.7
2018-Feb-12 02:00N 46°55' E 032°01'4 8.1
2018-Feb-12 01:30N 46°52' E 031°58'510.5
2018-Feb-12 01:00N 46°48' E 031°53'510.7
2018-Feb-12 00:30N 46°43' E 031°56'510.5
2018-Feb-12 00:00N 46°38' E 031°54'611.3
2018-Feb-11 23:30N 46°36' E 031°46'611.6
2018-Feb-11 22:57N 46°35' E 031°37'2311.2
2018-Feb-11 20:57N 46°34' E 031°04'3 7.1
2018-Feb-11 20:30N 46°33' E 030°60'3 5.5
2018-Feb-11 20:00N 46°31' E 030°57'4 7.2
2018-Feb-11 19:29N 46°27' E 030°57'3 6.9
2018-Feb-11 18:59N 46°24' E 030°57'4 0.8
2018-Feb-11 13:53N 46°21' E 031°01'  
Track history (hours):
 
Tides and Currents Weather Stations Pressure Air Temp Water Temp Dewpoint Dewpoint Depression Visibility Wind Speed Wind Dir Waves Ship Positions

Maersk Barry

Last reported at 2018-Feb-21 06:57 UTC. Time now 2018-Feb-23 01:08 UTC.
Position N 37°14' E 025°51'.

Length 175 m; draft 9.5 m.

Type: Ship (hazmat cat B). MMSI: 219127000.

Date/timePositionNaut miles runAvg speedWind from/ knotsBaromVisibWave heightAir tempDewpointWater temp
2018-Feb-21 06:57N 37°14' E 025°51'613.9
2018-Feb-21 06:30N 37°20' E 025°49'713.4
2018-Feb-21 06:00N 37°26' E 025°48'713.0
2018-Feb-21 05:30N 37°33' E 025°49'  
2018-Feb-17 02:59N 46°14' E 030°53'511.0
2018-Feb-17 02:30N 46°19' E 030°55'612.4
2018-Feb-17 02:00N 46°26' E 030°55'611.9
2018-Feb-17 01:30N 46°32' E 030°55'510.3
2018-Feb-17 01:01N 46°34' E 031°02'5 9.4
2018-Feb-17 00:31N 46°35' E 031°08'611.3
2018-Feb-16 23:57N 46°35' E 031°17'9 9.5
2018-Feb-16 22:58N 46°35' E 031°31'7 9.3
2018-Feb-16 22:15N 46°36' E 031°41'2 9.9
2018-Feb-16 22:01N 46°36' E 031°44'5 9.4
2018-Feb-16 21:31N 46°37' E 031°51'4 8.9
2018-Feb-16 21:00N 46°40' E 031°56'4 8.8
2018-Feb-16 20:30N 46°44' E 031°56'4 8.4
2018-Feb-16 20:00N 46°48' E 031°53'5 9.5
2018-Feb-16 19:30N 46°52' E 031°58'4 8.9
2018-Feb-16 19:00N 46°55' E 032°01'2 3.7
2018-Feb-16 18:30N 46°57' E 031°60'0 0.0
2018-Feb-16 17:58N 46°57' E 031°60'0 0.0
2018-Feb-16 17:28N 46°57' E 031°60'0 0.0
2018-Feb-16 16:58N 46°57' E 031°60'0 0.0
2018-Feb-16 16:25N 46°57' E 031°60'0 0.0
2018-Feb-16 15:58N 46°57' E 031°60'0 0.0
2018-Feb-16 15:28N 46°57' E 031°60'0 0.0
2018-Feb-16 14:55N 46°57' E 031°60'0 0.0
2018-Feb-16 14:25N 46°57' E 031°60'0 0.0
2018-Feb-16 13:58N 46°57' E 031°60'0 0.0
2018-Feb-16 13:28N 46°57' E 031°60'0 0.0
2018-Feb-16 12:58N 46°57' E 031°60'0 0.0
2018-Feb-16 12:28N 46°57' E 031°60'0 0.0
2018-Feb-16 11:55N 46°57' E 031°60'0 0.0
2018-Feb-16 11:28N 46°57' E 031°60'0 0.0
2018-Feb-16 10:58N 46°57' E 031°60'0 0.0
2018-Feb-16 10:28N 46°57' E 031°60'0 0.0
2018-Feb-16 09:58N 46°57' E 031°60'0 0.0
2018-Feb-16 09:28N 46°57' E 031°60'0 0.0
2018-Feb-16 08:55N 46°57' E 031°60'0 0.0
2018-Feb-16 08:28N 46°57' E 031°60'0 0.0
2018-Feb-16 07:58N 46°57' E 031°60'0 0.0
2018-Feb-16 07:28N 46°57' E 031°60'0 0.0
2018-Feb-16 06:55N 46°57' E 031°60'0 0.0
2018-Feb-16 06:28N 46°57' E 031°60'0 0.0
2018-Feb-16 05:58N 46°57' E 031°60'0 0.0
2018-Feb-16 05:28N 46°57' E 031°60'0 0.0
2018-Feb-16 04:52N 46°57' E 031°60'0 0.0
2018-Feb-16 04:28N 46°57' E 031°60'0 0.0
2018-Feb-16 03:58N 46°57' E 031°60'0 0.0
2018-Feb-16 03:28N 46°57' E 031°60'0 0.0
2018-Feb-16 02:58N 46°57' E 031°60'0 0.0
2018-Feb-16 02:28N 46°57' E 031°60'0 0.0
2018-Feb-16 01:58N 46°57' E 031°60'0 0.0
2018-Feb-16 01:25N 46°57' E 031°60'0 0.0
2018-Feb-16 00:55N 46°57' E 031°60'0 0.0
2018-Feb-16 00:28N 46°57' E 031°60'0 0.0
2018-Feb-15 23:55N 46°57' E 031°60'0 0.0
2018-Feb-15 23:28N 46°57' E 031°60'0 0.0
2018-Feb-15 22:58N 46°57' E 031°60'0 0.0
2018-Feb-15 22:28N 46°57' E 031°60'0 0.0
2018-Feb-15 21:58N 46°57' E 031°60'0 0.0
2018-Feb-15 21:28N 46°57' E 031°60'0 0.0
2018-Feb-15 20:58N 46°57' E 031°60'0 0.0
2018-Feb-15 20:28N 46°57' E 031°60'0 0.0
2018-Feb-15 19:58N 46°57' E 031°60'0 0.0
2018-Feb-15 19:28N 46°57' E 031°60'0 0.0
2018-Feb-15 18:58N 46°57' E 031°60'0 0.0
2018-Feb-15 18:28N 46°57' E 031°60'0 0.0
2018-Feb-15 17:58N 46°57' E 031°60'0 0.0
2018-Feb-15 17:28N 46°57' E 031°60'0 0.0
2018-Feb-15 16:58N 46°57' E 031°60'0 0.0
2018-Feb-15 16:28N 46°57' E 031°60'0 0.0
2018-Feb-15 15:58N 46°57' E 031°60'0 0.0
2018-Feb-15 15:28N 46°57' E 031°60'0 0.0
2018-Feb-15 14:58N 46°57' E 031°60'0 0.0
2018-Feb-15 14:28N 46°57' E 031°60'0 0.0
2018-Feb-15 13:58N 46°57' E 031°60'0 0.0
2018-Feb-15 13:28N 46°57' E 031°60'0 0.0
2018-Feb-15 12:58N 46°57' E 031°60'0 0.0
2018-Feb-15 12:28N 46°57' E 031°60'0 0.0
2018-Feb-15 11:58N 46°57' E 031°60'0 0.0
2018-Feb-15 11:25N 46°57' E 031°60'0 0.0
2018-Feb-15 10:58N 46°57' E 031°60'0 0.0
2018-Feb-15 10:28N 46°57' E 031°60'0 0.0
2018-Feb-15 09:58N 46°57' E 031°60'0 0.0
2018-Feb-15 09:28N 46°57' E 031°60'0 0.0
2018-Feb-15 08:58N 46°57' E 031°60'0 0.0
2018-Feb-15 08:28N 46°57' E 031°60'0 0.0
2018-Feb-15 07:58N 46°57' E 031°60'0 0.0
2018-Feb-15 07:28N 46°57' E 031°60'0 0.0
2018-Feb-15 06:58N 46°57' E 031°60'0 0.0
2018-Feb-15 06:25N 46°57' E 031°60'0 0.0
2018-Feb-15 05:58N 46°57' E 031°60'0 0.0
2018-Feb-15 05:28N 46°57' E 031°60'0 0.0
2018-Feb-15 04:58N 46°57' E 031°60'0 0.0
2018-Feb-15 04:28N 46°57' E 031°60'0 0.0
2018-Feb-15 03:58N 46°57' E 031°60'0 0.0
2018-Feb-15 03:28N 46°57' E 031°60'0 0.0
2018-Feb-15 02:58N 46°57' E 031°60'0 0.0
2018-Feb-15 02:28N 46°57' E 031°60'0 0.0
2018-Feb-15 01:58N 46°57' E 031°60'0 0.0
2018-Feb-15 01:25N 46°57' E 031°60'0 0.0
2018-Feb-15 00:58N 46°57' E 031°60'0 0.0
2018-Feb-15 00:28N 46°57' E 031°60'0 0.0
2018-Feb-14 23:58N 46°57' E 031°60'0 0.0
2018-Feb-14 23:28N 46°57' E 031°60'0 0.0
2018-Feb-14 22:55N 46°57' E 031°60'0 0.0
2018-Feb-14 22:28N 46°57' E 031°60'0 0.0
2018-Feb-14 21:58N 46°57' E 031°60'0 0.0
2018-Feb-14 21:28N 46°57' E 031°60'0 0.0
2018-Feb-14 20:55N 46°57' E 031°60'0 0.0
2018-Feb-14 20:28N 46°57' E 031°60'0 0.0
2018-Feb-14 19:58N 46°57' E 031°60'0 0.0
2018-Feb-14 19:28N 46°57' E 031°60'0 0.0
2018-Feb-14 18:58N 46°57' E 031°60'0 0.0
2018-Feb-14 18:28N 46°57' E 031°60'0 0.0
2018-Feb-14 17:58N 46°57' E 031°60'0 0.0
2018-Feb-14 17:28N 46°57' E 031°60'0 0.0
2018-Feb-14 16:58N 46°57' E 031°60'0 0.0
2018-Feb-14 16:25N 46°57' E 031°60'0 0.0
2018-Feb-14 15:55N 46°57' E 031°60'0 0.0
2018-Feb-14 15:28N 46°57' E 031°60'0 0.0
2018-Feb-14 14:55N 46°57' E 031°60'0 0.0
2018-Feb-14 14:28N 46°57' E 031°60'0 0.0
2018-Feb-14 13:58N 46°57' E 031°60'0 0.0
2018-Feb-14 13:28N 46°57' E 031°60'0 0.0
2018-Feb-14 12:58N 46°57' E 031°60'0 0.0
2018-Feb-14 12:28N 46°57' E 031°60'0 0.0
2018-Feb-14 11:58N 46°57' E 031°60'0 0.0
2018-Feb-14 11:28N 46°57' E 031°60'0 0.0
2018-Feb-14 10:58N 46°57' E 031°60'0 0.0
2018-Feb-14 10:28N 46°57' E 031°60'0 0.0
2018-Feb-14 09:58N 46°57' E 031°60'0 0.0
2018-Feb-14 09:28N 46°57' E 031°60'0 0.0
2018-Feb-14 08:55N 46°57' E 031°60'0 0.0
2018-Feb-14 08:25N 46°57' E 031°60'0 0.0
2018-Feb-14 07:58N 46°57' E 031°60'0 0.0
2018-Feb-14 07:22N 46°57' E 031°60'0 0.0
2018-Feb-14 06:58N 46°57' E 031°60'0 0.0
2018-Feb-14 06:28N 46°57' E 031°60'0 0.0
2018-Feb-14 05:58N 46°57' E 031°60'0 0.0
2018-Feb-14 05:28N 46°57' E 031°60'0 0.0
2018-Feb-14 04:58N 46°57' E 031°60'0 0.0
2018-Feb-14 04:28N 46°57' E 031°60'0 0.0
2018-Feb-14 03:58N 46°57' E 031°60'0 0.0
2018-Feb-14 03:28N 46°57' E 031°60'0 0.0
2018-Feb-14 02:58N 46°57' E 031°60'0 0.0
2018-Feb-14 02:28N 46°57' E 031°60'0 0.0
2018-Feb-14 01:58N 46°57' E 031°60'0 0.0
2018-Feb-14 01:28N 46°57' E 031°60'0 0.0
2018-Feb-14 00:55N 46°57' E 031°60'0 0.0
2018-Feb-14 00:25N 46°57' E 031°60'0 0.0
2018-Feb-13 23:58N 46°57' E 031°60'0 0.0
2018-Feb-13 23:28N 46°57' E 031°60'0 0.0
2018-Feb-13 22:58N 46°57' E 031°60'0 0.0
2018-Feb-13 22:28N 46°57' E 031°60'0 0.0
2018-Feb-13 21:58N 46°57' E 031°60'0 0.0
2018-Feb-13 21:28N 46°57' E 031°60'0 0.0
2018-Feb-13 20:58N 46°57' E 031°60'0 0.0
2018-Feb-13 20:28N 46°57' E 031°60'0 0.0
2018-Feb-13 19:58N 46°57' E 031°60'0 0.0
2018-Feb-13 19:25N 46°57' E 031°60'0 0.0
2018-Feb-13 18:55N 46°57' E 031°60'0 0.0
2018-Feb-13 18:28N 46°57' E 031°60'0 0.0
2018-Feb-13 17:58N 46°57' E 031°60'0 0.0
2018-Feb-13 17:28N 46°57' E 031°60'0 0.0
2018-Feb-13 16:58N 46°57' E 031°60'0 0.0
2018-Feb-13 16:28N 46°57' E 031°60'0 0.0
2018-Feb-13 15:58N 46°57' E 031°60'0 0.0
2018-Feb-13 15:28N 46°57' E 031°60'0 0.0
2018-Feb-13 14:58N 46°57' E 031°60'0 0.1
2018-Feb-13 14:30N 46°57' E 032°00'1 1.5
2018-Feb-13 14:00N 46°57' E 032°01'0 0.3
2018-Feb-13 13:24N 46°56' E 032°01'0 0.0
2018-Feb-13 13:00N 46°56' E 032°01'0 0.0
2018-Feb-13 12:30N 46°56' E 032°01'0 0.0
2018-Feb-13 12:00N 46°56' E 032°01'0 0.0
2018-Feb-13 11:30N 46°56' E 032°01'0 0.0
2018-Feb-13 11:00N 46°56' E 032°01'0 0.0
2018-Feb-13 10:30N 46°56' E 032°01'0 0.0
2018-Feb-13 10:00N 46°56' E 032°01'0 0.0
2018-Feb-13 09:30N 46°56' E 032°01'0 0.0
2018-Feb-13 09:00N 46°56' E 032°01'0 0.0
2018-Feb-13 08:30N 46°56' E 032°01'0 0.0
2018-Feb-13 08:00N 46°56' E 032°01'0 0.0
2018-Feb-13 07:30N 46°56' E 032°01'0 0.0
2018-Feb-13 07:00N 46°56' E 032°01'0 0.0
2018-Feb-13 06:30N 46°56' E 032°01'0 0.0
2018-Feb-13 06:00N 46°56' E 032°01'0 0.0
2018-Feb-13 05:30N 46°56' E 032°01'0 0.0
2018-Feb-13 05:00N 46°56' E 032°01'0 0.0
2018-Feb-13 04:30N 46°56' E 032°01'0 0.0
2018-Feb-13 04:00N 46°56' E 032°01'0 0.0
2018-Feb-13 03:30N 46°56' E 032°01'0 0.0
2018-Feb-13 03:00N 46°56' E 032°01'0 0.0
2018-Feb-13 02:30N 46°56' E 032°01'0 0.0
2018-Feb-13 02:00N 46°56' E 032°01'0 0.0
2018-Feb-13 01:30N 46°56' E 032°01'0 0.0
2018-Feb-13 01:00N 46°56' E 032°01'0 0.0
2018-Feb-13 00:30N 46°56' E 032°01'0 0.0
2018-Feb-12 23:57N 46°56' E 032°01'0 0.0
2018-Feb-12 23:30N 46°56' E 032°01'0 0.0
2018-Feb-12 23:00N 46°56' E 032°01'0 0.0
2018-Feb-12 22:30N 46°56' E 032°01'0 0.0
2018-Feb-12 22:00N 46°56' E 032°01'0 0.0
2018-Feb-12 21:30N 46°56' E 032°01'0 0.0
2018-Feb-12 21:00N 46°56' E 032°01'0 0.0
2018-Feb-12 20:30N 46°56' E 032°01'0 0.0
2018-Feb-12 20:00N 46°56' E 032°01'0 0.0
2018-Feb-12 19:30N 46°56' E 032°01'0 0.0
2018-Feb-12 19:00N 46°56' E 032°01'0 0.0
2018-Feb-12 18:30N 46°56' E 032°01'0 0.0
2018-Feb-12 18:00N 46°56' E 032°01'0 0.0
2018-Feb-12 17:30N 46°56' E 032°01'0 0.0
2018-Feb-12 17:00N 46°56' E 032°01'0 0.0
2018-Feb-12 16:30N 46°56' E 032°01'0 0.0
2018-Feb-12 16:00N 46°56' E 032°01'0 0.0
2018-Feb-12 15:18N 46°56' E 032°01'0 0.0
2018-Feb-12 15:00N 46°56' E 032°01'0 0.0
2018-Feb-12 14:30N 46°56' E 032°01'0 0.0
2018-Feb-12 14:00N 46°56' E 032°01'0 0.0
2018-Feb-12 13:30N 46°56' E 032°01'0 0.0
2018-Feb-12 13:00N 46°56' E 032°01'0 0.0
2018-Feb-12 12:30N 46°56' E 032°01'0 0.0
2018-Feb-12 12:00N 46°56' E 032°01'0 0.0
2018-Feb-12 11:30N 46°56' E 032°01'0 0.0
2018-Feb-12 11:00N 46°56' E 032°01'0 0.0
2018-Feb-12 10:30N 46°56' E 032°01'0 0.0
2018-Feb-12 10:00N 46°56' E 032°01'0 0.0
2018-Feb-12 09:30N 46°56' E 032°01'0 0.0
2018-Feb-12 09:00N 46°56' E 032°01'0 0.0
2018-Feb-12 08:27N 46°56' E 032°01'0 0.0
2018-Feb-12 08:00N 46°56' E 032°01'0 0.0
2018-Feb-12 07:30N 46°56' E 032°01'0 0.0
2018-Feb-12 07:00N 46°56' E 032°01'0 0.0
2018-Feb-12 06:30N 46°56' E 032°01'0 0.0
2018-Feb-12 06:00N 46°56' E 032°01'0 0.0
2018-Feb-12 05:27N 46°56' E 032°01'0 0.0
2018-Feb-12 05:00N 46°56' E 032°01'0 0.0
2018-Feb-12 04:30N 46°56' E 032°01'0 0.0
2018-Feb-12 04:00N 46°56' E 032°01'0 0.0
2018-Feb-12 03:30N 46°56' E 032°01'0 0.0
2018-Feb-12 03:00N 46°56' E 032°01'0 0.3
2018-Feb-12 02:30N 46°56' E 032°01'1 2.7
2018-Feb-12 02:00N 46°55' E 032°01'4 8.1
2018-Feb-12 01:30N 46°52' E 031°58'510.5
2018-Feb-12 01:00N 46°48' E 031°53'510.7
2018-Feb-12 00:30N 46°43' E 031°56'510.5
2018-Feb-12 00:00N 46°38' E 031°54'611.3
2018-Feb-11 23:30N 46°36' E 031°46'611.6
2018-Feb-11 22:57N 46°35' E 031°37'2311.2
2018-Feb-11 20:57N 46°34' E 031°04'3 7.1
2018-Feb-11 20:30N 46°33' E 030°60'3 5.5
2018-Feb-11 20:00N 46°31' E 030°57'4 7.2
2018-Feb-11 19:29N 46°27' E 030°57'3 6.9
2018-Feb-11 18:59N 46°24' E 030°57'4 0.8
2018-Feb-11 13:53N 46°21' E 031°01'  

Dump ship's entire track history